createdAt,value
2023-03-06T00:01:55.511Z,7.20
2023-03-06T00:04:22.119Z,8.55
2023-03-06T00:06:48.759Z,13.50
2023-03-06T00:09:15.265Z,9.68
2023-03-06T00:11:41.785Z,6.63
2023-03-06T00:14:08.271Z,7.70
2023-03-06T00:16:34.943Z,8.43
2023-03-06T00:19:01.492Z,7.20
2023-03-06T00:21:28.028Z,5.88
2023-03-06T00:23:54.726Z,4.70
2023-03-06T00:26:21.286Z,7.75
2023-03-06T00:28:47.834Z,5.50
2023-03-06T00:31:14.452Z,11.93
2023-03-06T00:33:41.030Z,6.32
2023-03-06T00:36:07.915Z,7.65
2023-03-06T00:38:35.610Z,8.15
2023-03-06T00:41:10.565Z,7.60
2023-03-06T00:43:37.525Z,7.25
2023-03-06T00:46:04.247Z,8.02
2023-03-06T00:48:30.951Z,7.22
2023-03-06T00:50:57.528Z,6.82
2023-03-06T00:53:25.680Z,5.43
2023-03-06T00:55:52.258Z,5.25
2023-03-06T00:58:19.006Z,8.27
2023-03-06T01:00:45.575Z,6.80
2023-03-06T01:03:12.225Z,8.00
2023-03-06T01:05:39.339Z,6.00
2023-03-06T01:08:06.452Z,6.45
2023-03-06T01:10:33.669Z,6.63
2023-03-06T01:13:00.227Z,5.97
2023-03-06T01:15:26.765Z,5.30
2023-03-06T01:17:54.543Z,4.68
2023-03-06T01:20:22.385Z,4.70
2023-03-06T01:22:48.933Z,6.50
2023-03-06T01:25:15.548Z,4.15
2023-03-06T01:27:42.138Z,4.47
2023-03-06T01:30:09.470Z,5.40
2023-03-06T01:32:36.006Z,5.47
2023-03-06T01:35:03.870Z,3.85
2023-03-06T01:37:30.457Z,4.05
2023-03-06T01:39:57.024Z,4.97
2023-03-06T01:42:23.717Z,4.47
2023-03-06T01:45:05.742Z,5.00
2023-03-06T01:47:32.295Z,4.07
2023-03-06T01:50:01.375Z,4.07
2023-03-06T01:52:33.502Z,4.38
2023-03-06T01:55:08.594Z,3.47
2023-03-06T01:57:47.219Z,5.72
2023-03-06T02:00:18.731Z,4.07
2023-03-06T02:02:50.227Z,6.38
2023-03-06T02:05:17.039Z,4.63
2023-03-06T02:07:45.402Z,5.05
2023-03-06T02:10:13.288Z,3.88
2023-03-06T02:12:43.710Z,3.72
2023-03-06T02:15:13.029Z,3.47
2023-03-06T02:17:41.689Z,5.43
2023-03-06T02:20:08.214Z,4.70
2023-03-06T02:22:43.514Z,4.88
2023-03-06T02:25:30.381Z,5.13
2023-03-06T02:27:56.963Z,3.47
2023-03-06T02:30:26.747Z,6.25
2023-03-06T02:32:53.512Z,4.78
2023-03-06T02:35:25.447Z,3.60
2023-03-06T02:37:53.285Z,4.07
2023-03-06T02:40:23.105Z,3.92
2023-03-06T02:42:55.424Z,3.95
2023-03-06T02:45:35.886Z,4.95
2023-03-06T02:48:03.364Z,6.22
2023-03-06T02:50:31.045Z,4.50
2023-03-06T02:52:58.233Z,5.38
2023-03-06T02:55:25.020Z,4.25
2023-03-06T02:57:51.694Z,5.28
2023-03-06T03:00:19.250Z,4.85
2023-03-06T03:02:46.017Z,4.95
2023-03-06T03:05:12.615Z,6.63
2023-03-06T03:07:39.146Z,3.22
2023-03-06T03:10:06.235Z,5.13
2023-03-06T03:12:33.479Z,4.43
2023-03-06T03:15:00.013Z,5.88
2023-03-06T03:17:26.686Z,4.97
2023-03-06T03:19:53.416Z,4.40
2023-03-06T03:22:20.490Z,4.90
2023-03-06T03:24:47.672Z,7.55
2023-03-06T03:27:14.547Z,3.42
2023-03-06T03:29:41.408Z,4.30
2023-03-06T03:32:08.198Z,5.55
2023-03-06T03:34:34.834Z,3.15
2023-03-06T03:37:01.587Z,4.43
2023-03-06T03:39:28.208Z,4.38
2023-03-06T03:41:54.880Z,4.72
2023-03-06T03:44:21.401Z,6.20
2023-03-06T03:46:48.036Z,4.78
2023-03-06T03:49:15.272Z,6.05
2023-03-06T03:51:41.827Z,4.75
2023-03-06T03:54:08.458Z,4.65
2023-03-06T03:56:35.179Z,5.18
2023-03-06T03:59:01.938Z,6.40
2023-03-06T04:01:28.489Z,5.90
2023-03-06T04:03:55.107Z,6.63
2023-03-06T04:06:21.673Z,6.60
2023-03-06T04:08:48.260Z,4.72
2023-03-06T04:11:15.183Z,6.45
2023-03-06T04:13:41.750Z,7.75
2023-03-06T04:16:08.488Z,4.70
2023-03-06T04:18:35.249Z,6.40
2023-03-06T04:21:01.851Z,8.23
2023-03-06T04:23:28.790Z,6.95
2023-03-06T04:25:55.504Z,5.68
2023-03-06T04:28:22.083Z,5.85
2023-03-06T04:30:48.596Z,6.55
2023-03-06T04:33:16.492Z,6.35
2023-03-06T04:35:43.130Z,5.22
2023-03-06T04:38:09.973Z,6.60
2023-03-06T04:40:36.977Z,5.05
2023-03-06T04:43:04.175Z,5.15
2023-03-06T04:45:32.339Z,5.72
2023-03-06T04:47:59.558Z,7.50
2023-03-06T04:50:28.158Z,7.10
2023-03-06T04:52:54.743Z,9.32
2023-03-06T04:55:21.416Z,6.63
2023-03-06T04:57:48.381Z,6.85
2023-03-06T05:00:19.277Z,6.95
2023-03-06T05:02:46.304Z,6.32
2023-03-06T05:05:14.349Z,6.70
2023-03-06T05:07:42.367Z,10.20
2023-03-06T05:10:12.725Z,8.27
2023-03-06T05:12:39.578Z,5.20
2023-03-06T05:15:08.203Z,7.05
2023-03-06T05:17:35.039Z,6.53
2023-03-06T05:20:01.627Z,6.10
2023-03-06T05:22:28.238Z,8.85
2023-03-06T05:24:54.838Z,7.85
2023-03-06T05:27:21.402Z,5.47
2023-03-06T05:29:48.005Z,6.07
2023-03-06T05:32:16.189Z,6.68
2023-03-06T05:34:43.024Z,6.88
2023-03-06T05:37:09.666Z,8.85
2023-03-06T05:39:36.214Z,6.10
2023-03-06T05:42:03.108Z,6.70
2023-03-06T05:44:33.858Z,8.00
2023-03-06T05:47:00.466Z,7.88
2023-03-06T05:49:31.479Z,8.05
2023-03-06T05:51:58.165Z,7.75
2023-03-06T05:54:26.214Z,7.47
2023-03-06T05:56:52.773Z,6.47
2023-03-06T05:59:19.355Z,8.57
2023-03-06T06:01:45.996Z,6.63
2023-03-06T06:04:12.534Z,7.80
2023-03-06T06:06:39.076Z,5.97
2023-03-06T06:09:05.631Z,8.93
2023-03-06T06:11:32.184Z,6.05
2023-03-06T06:13:58.746Z,7.15
2023-03-06T06:16:25.298Z,6.40
2023-03-06T06:18:51.833Z,5.28
2023-03-06T06:21:18.364Z,5.82
2023-03-06T06:23:44.992Z,8.23
2023-03-06T06:26:11.864Z,9.32
2023-03-06T06:28:38.398Z,8.20
2023-03-06T06:31:10.726Z,6.25
2023-03-06T06:33:37.538Z,6.70
2023-03-06T06:36:04.418Z,8.15
2023-03-06T06:38:30.968Z,6.90
2023-03-06T06:41:30.606Z,5.95
2023-03-06T06:43:44.047Z,7.25
2023-03-06T06:46:44.613Z,8.63
2023-03-06T06:48:57.069Z,7.20
2023-03-06T06:51:23.717Z,11.45
2023-03-06T06:53:53.311Z,7.82
2023-03-06T06:56:19.833Z,9.25
2023-03-06T06:58:46.410Z,5.53
2023-03-06T07:01:13.690Z,9.35
2023-03-06T07:03:40.933Z,7.75
2023-03-06T07:06:08.269Z,7.75
2023-03-06T07:08:35.208Z,8.18
2023-03-06T07:11:07.852Z,6.50
2023-03-06T07:13:35.167Z,10.20
2023-03-06T07:16:02.007Z,8.73
2023-03-06T07:18:28.632Z,9.32
2023-03-06T07:20:55.910Z,5.80
2023-03-06T07:23:23.345Z,5.72
2023-03-06T07:25:50.661Z,7.47
2023-03-06T07:28:18.654Z,9.88
2023-03-06T07:31:03.394Z,7.40
2023-03-06T07:36:19.441Z,6.75
2023-03-06T07:38:46.005Z,6.47
2023-03-06T07:41:14.500Z,4.85
2023-03-06T07:43:41.848Z,11.00
2023-03-06T07:46:09.191Z,6.25
2023-03-06T07:48:36.791Z,6.22
2023-03-06T07:51:07.177Z,6.97
2023-03-06T07:53:34.496Z,4.63
2023-03-06T07:56:01.434Z,7.53
2023-03-06T07:58:27.991Z,5.90
2023-03-06T08:00:54.830Z,8.13
2023-03-06T08:03:21.385Z,6.32
2023-03-06T08:05:47.935Z,5.65
2023-03-06T08:08:14.677Z,9.52
2023-03-06T08:10:41.275Z,4.97
2023-03-06T08:13:07.838Z,5.95
2023-03-06T08:15:34.363Z,8.13
2023-03-06T08:18:00.884Z,4.70
2023-03-06T08:20:27.550Z,7.80
2023-03-06T08:22:54.124Z,7.28
2023-03-06T08:25:20.661Z,9.30
2023-03-06T08:27:47.467Z,6.85
2023-03-06T08:30:14.832Z,6.78
2023-03-06T08:32:41.494Z,9.60
2023-03-06T08:35:08.506Z,6.82
2023-03-06T08:37:35.149Z,5.18
2023-03-06T08:40:04.570Z,6.68
2023-03-06T08:42:32.262Z,6.78
2023-03-06T08:44:58.886Z,6.00
2023-03-06T08:47:25.748Z,6.43
2023-03-06T08:49:52.469Z,5.82
2023-03-06T08:52:19.914Z,8.60
2023-03-06T08:54:46.632Z,7.65
2023-03-06T08:57:13.172Z,5.47
2023-03-06T08:59:39.752Z,6.50
2023-03-06T09:02:07.681Z,9.73
2023-03-06T09:04:34.570Z,4.65
2023-03-06T09:07:01.516Z,6.85
2023-03-06T09:09:28.076Z,6.55
2023-03-06T09:11:55.072Z,9.77
2023-03-06T09:14:22.032Z,4.63
2023-03-06T09:16:48.639Z,5.13
2023-03-06T09:19:15.228Z,8.38
2023-03-06T09:21:42.143Z,5.97
2023-03-06T09:24:08.960Z,6.22
2023-03-06T09:26:45.590Z,5.38
2023-03-06T09:29:13.771Z,8.30
2023-03-06T09:31:40.502Z,8.50
2023-03-06T09:34:07.026Z,5.82
2023-03-06T09:36:45.674Z,5.55
2023-03-06T09:39:20.135Z,6.65
2023-03-06T09:41:49.632Z,5.55
2023-03-06T09:44:21.407Z,8.18
2023-03-06T09:47:03.551Z,10.40
2023-03-06T09:49:48.413Z,5.10
2023-03-06T09:52:30.132Z,4.32
2023-03-06T09:55:14.956Z,7.15
2023-03-06T09:57:52.362Z,6.22
2023-03-06T10:00:50.781Z,4.90
2023-03-06T10:03:33.053Z,5.90
2023-03-06T10:06:15.546Z,6.88
2023-03-06T10:09:00.809Z,6.80
2023-03-06T10:11:47.217Z,6.45
2023-03-06T10:14:21.498Z,8.00
2023-03-06T10:16:48.111Z,6.22
2023-03-06T10:19:20.325Z,6.32
2023-03-06T10:21:46.854Z,7.40
2023-03-06T10:24:19.405Z,6.78
2023-03-06T10:26:55.078Z,6.55
2023-03-06T10:29:24.326Z,6.38
2023-03-06T10:32:01.318Z,6.60
2023-03-06T10:34:36.355Z,5.32
2023-03-06T10:37:17.700Z,7.90
2023-03-06T10:39:44.219Z,7.03
2023-03-06T10:42:10.844Z,9.77
2023-03-06T10:44:37.497Z,6.35
2023-03-06T10:47:35.246Z,7.05
2023-03-06T10:50:08.038Z,8.35
2023-03-06T10:52:36.074Z,4.80
2023-03-06T10:55:26.933Z,6.15
2023-03-06T10:57:53.783Z,5.45
2023-03-06T11:00:32.954Z,6.38
2023-03-06T11:03:24.585Z,8.45
2023-03-06T11:06:35.087Z,5.78
2023-03-06T11:09:20.659Z,6.13
2023-03-06T11:11:47.338Z,7.60
2023-03-06T11:14:17.687Z,8.50
2023-03-06T11:16:53.567Z,8.02
2023-03-06T11:19:28.020Z,10.20
2023-03-06T11:22:10.903Z,5.53
2023-03-06T11:24:43.554Z,7.28
2023-03-06T11:27:34.984Z,5.93
2023-03-06T11:30:15.259Z,7.65
2023-03-06T11:32:57.568Z,19.25
2023-03-06T11:35:30.888Z,6.72
2023-03-06T11:38:04.297Z,9.25
2023-03-06T11:40:45.541Z,8.88
2023-03-06T11:43:49.830Z,8.88
2023-03-06T11:46:24.823Z,7.18
2023-03-06T11:48:58.219Z,7.38
2023-03-06T11:51:29.156Z,7.35
2023-03-06T11:53:59.942Z,8.27
2023-03-06T11:56:35.731Z,8.05
2023-03-06T11:59:26.083Z,7.70
2023-03-06T12:02:04.231Z,10.07
2023-03-06T12:04:39.927Z,9.80
2023-03-06T12:07:30.548Z,7.20
2023-03-06T12:10:10.252Z,7.68
2023-03-06T12:12:58.657Z,8.05
2023-03-06T12:15:36.954Z,6.50
2023-03-06T12:18:22.232Z,8.32
2023-03-06T12:21:04.060Z,8.93
2023-03-06T12:23:42.961Z,5.57
2023-03-06T12:26:21.952Z,9.52
2023-03-06T12:29:02.701Z,6.78
2023-03-06T12:31:43.834Z,12.48
2023-03-06T12:34:28.571Z,9.00
2023-03-06T12:37:20.914Z,8.32
2023-03-06T12:40:10.015Z,9.52
2023-03-06T12:43:18.712Z,9.98
2023-03-06T12:45:46.862Z,6.68
2023-03-06T12:48:21.191Z,6.80
2023-03-06T12:50:48.956Z,7.40
2023-03-06T12:53:30.573Z,8.57
2023-03-06T12:55:58.886Z,10.07
2023-03-06T12:58:28.361Z,8.05
2023-03-06T13:01:20.118Z,13.30
2023-03-06T13:04:20.232Z,12.50
2023-03-06T13:07:01.981Z,8.02
2023-03-06T13:09:38.871Z,6.95
2023-03-06T13:12:14.632Z,10.65
2023-03-06T13:14:48.698Z,10.68
2023-03-06T13:17:20.576Z,9.43
2023-03-06T13:19:48.225Z,8.52
2023-03-06T13:22:35.059Z,15.88
2023-03-06T13:25:20.037Z,8.02
2023-03-06T13:27:53.117Z,8.50
2023-03-06T13:30:22.748Z,10.50
2023-03-06T13:32:52.800Z,7.55
2023-03-06T13:35:39.564Z,8.38
2023-03-06T13:38:34.990Z,6.13
2023-03-06T13:41:30.703Z,8.65
2023-03-06T13:43:59.662Z,11.68
2023-03-06T13:46:30.384Z,8.88
2023-03-06T13:49:09.317Z,7.85
2023-03-06T13:51:42.114Z,9.18
2023-03-06T13:54:43.932Z,8.30
2023-03-06T13:57:10.538Z,9.38
2023-03-06T14:00:28.050Z,8.63
2023-03-06T14:03:05.226Z,9.38
2023-03-06T14:05:46.680Z,10.52
2023-03-06T14:08:22.239Z,8.02
2023-03-06T14:11:00.679Z,6.85
2023-03-06T14:13:41.813Z,7.93
2023-03-06T14:16:20.118Z,8.27
2023-03-06T14:18:49.375Z,6.85
2023-03-06T14:21:25.937Z,8.93
2023-03-06T14:24:00.969Z,6.55
2023-03-06T14:26:31.866Z,9.57
2023-03-06T14:29:00.563Z,10.75
2023-03-06T14:31:42.486Z,6.18
2023-03-06T14:34:23.997Z,6.97
2023-03-06T14:36:56.222Z,9.70
2023-03-06T14:39:37.135Z,8.52
2023-03-06T14:42:09.086Z,7.22
2023-03-06T14:44:35.693Z,7.57
2023-03-06T14:47:23.291Z,6.57
2023-03-06T14:50:24.835Z,7.63
2023-03-06T14:52:58.109Z,5.82
2023-03-06T14:55:27.223Z,6.43
2023-03-06T14:58:12.534Z,9.45
2023-03-06T15:00:46.222Z,9.27
2023-03-06T15:05:45.727Z,10.10
2023-03-06T15:08:18.340Z,14.75
2023-03-06T15:10:59.616Z,9.95
2023-03-06T15:13:28.832Z,7.07
2023-03-06T15:16:07.762Z,7.10
2023-03-06T15:18:36.184Z,9.43
2023-03-06T15:21:08.515Z,9.15
2023-03-06T15:26:22.961Z,7.30
2023-03-06T15:29:10.362Z,9.45
2023-03-06T15:31:39.785Z,10.05
2023-03-06T15:34:06.324Z,6.22
2023-03-06T15:36:35.084Z,6.60
2023-03-06T15:39:01.941Z,9.48
2023-03-06T15:41:36.332Z,9.98
2023-03-06T15:44:14.582Z,7.93
2023-03-06T15:46:41.824Z,10.00
2023-03-06T15:49:16.640Z,7.35
2023-03-06T15:51:43.800Z,10.70
2023-03-06T15:54:12.539Z,9.48
2023-03-06T15:56:42.932Z,13.25
2023-03-06T15:59:18.243Z,13.90
2023-03-06T16:01:45.546Z,13.05
2023-03-06T16:04:12.177Z,14.73
2023-03-06T16:06:38.868Z,12.70
2023-03-06T16:09:05.948Z,8.05
2023-03-06T16:11:43.228Z,23.13
2023-03-06T16:14:21.374Z,33.67
2023-03-06T16:16:49.249Z,20.48
2023-03-06T16:19:29.266Z,12.93
2023-03-06T16:21:56.749Z,14.88
2023-03-06T16:24:23.415Z,11.13
2023-03-06T16:26:51.932Z,13.60
2023-03-06T16:29:19.621Z,6.55
2023-03-06T16:31:46.503Z,11.77
2023-03-06T16:34:13.622Z,13.50
2023-03-06T16:36:40.709Z,10.57
2023-03-06T16:39:13.506Z,11.48
2023-03-06T16:41:40.043Z,11.17
2023-03-06T16:44:07.838Z,13.27
2023-03-06T16:46:39.193Z,13.23
2023-03-06T16:49:05.997Z,13.13
2023-03-06T16:51:33.484Z,14.05
2023-03-06T16:54:00.168Z,14.13
2023-03-06T16:56:29.944Z,10.15
2023-03-06T16:58:56.482Z,15.48
2023-03-06T17:01:23.298Z,13.35
2023-03-06T17:03:49.933Z,15.05
2023-03-06T17:06:19.125Z,11.15
2023-03-06T17:08:47.074Z,12.23
2023-03-06T17:11:14.212Z,18.10
2023-03-06T17:13:41.359Z,12.07
2023-03-06T17:16:11.244Z,15.90
2023-03-06T17:18:37.926Z,17.83
2023-03-06T17:21:04.760Z,16.20
2023-03-06T17:23:31.440Z,11.88
2023-03-06T17:26:10.359Z,16.38
2023-03-06T17:28:37.999Z,17.23
2023-03-06T17:31:30.863Z,16.08
2023-03-06T17:34:00.533Z,15.27
2023-03-06T17:36:29.970Z,18.80
2023-03-06T17:38:58.368Z,15.10
2023-03-06T17:41:25.581Z,14.05
2023-03-06T17:43:54.924Z,14.82
2023-03-06T17:46:21.760Z,11.50
2023-03-06T17:48:48.367Z,11.18
2023-03-06T17:51:15.047Z,11.73
2023-03-06T17:53:41.839Z,18.08
2023-03-06T17:56:11.774Z,14.95
2023-03-06T17:58:38.440Z,8.68
2023-03-06T18:01:16.667Z,11.85
2023-03-06T18:03:48.695Z,21.73
2023-03-06T18:06:16.480Z,17.10
2023-03-06T18:08:43.123Z,18.60
2023-03-06T18:11:12.215Z,19.70
2023-03-06T18:13:41.998Z,31.95
2023-03-06T18:16:11.578Z,20.98
2023-03-06T18:18:38.577Z,20.33
2023-03-06T18:21:06.726Z,16.77
2023-03-06T18:23:33.768Z,17.00
2023-03-06T18:26:14.305Z,18.25
2023-03-06T18:28:44.422Z,23.55
2023-03-06T18:31:14.821Z,21.77
2023-03-06T18:33:41.522Z,22.00
2023-03-06T18:36:08.282Z,20.40
2023-03-06T18:38:35.121Z,20.00
2023-03-06T18:41:01.648Z,18.20
2023-03-06T18:43:28.187Z,21.48
2023-03-06T18:45:58.374Z,16.98
2023-03-06T18:48:24.989Z,21.13
2023-03-06T18:50:51.528Z,19.40
2023-03-06T18:53:18.677Z,21.73
2023-03-06T18:55:54.146Z,24.25
2023-03-06T18:58:21.824Z,22.88
2023-03-06T19:00:49.439Z,26.77
2023-03-06T19:03:16.513Z,22.85
2023-03-06T19:05:45.777Z,25.75
2023-03-06T19:08:12.371Z,18.50
2023-03-06T19:10:41.551Z,21.27
2023-03-06T19:13:10.081Z,15.20
2023-03-06T19:15:45.678Z,20.85
2023-03-06T19:18:15.743Z,24.38
2023-03-06T19:20:43.044Z,22.33
2023-03-06T19:23:09.938Z,22.13
2023-03-06T19:25:36.787Z,25.55
2023-03-06T19:28:03.796Z,23.33
2023-03-06T19:30:30.350Z,23.92
2023-03-06T19:32:57.104Z,18.52
2023-03-06T19:35:25.011Z,22.92
2023-03-06T19:37:52.344Z,35.50
2023-03-06T19:40:19.556Z,31.13
2023-03-06T19:42:46.529Z,14.38
2023-03-06T19:45:13.172Z,18.20
2023-03-06T19:47:39.770Z,23.60
2023-03-06T19:50:06.842Z,19.67
2023-03-06T19:52:36.563Z,18.73
2023-03-06T19:55:03.350Z,15.23
2023-03-06T19:57:29.942Z,16.80
2023-03-06T19:59:58.496Z,19.55
2023-03-06T20:02:27.210Z,17.63
2023-03-06T20:04:54.860Z,17.55
2023-03-06T20:07:21.626Z,11.50
2023-03-06T20:09:48.327Z,19.48
2023-03-06T20:12:15.714Z,18.95
2023-03-06T20:14:43.132Z,20.50
2023-03-06T20:17:09.784Z,18.85
2023-03-06T20:19:36.805Z,16.60
2023-03-06T20:22:03.484Z,17.77
2023-03-06T20:24:30.053Z,19.58
2023-03-06T20:26:58.427Z,16.58
2023-03-06T20:29:28.119Z,20.90
2023-03-06T20:31:56.226Z,18.33
2023-03-06T20:34:23.653Z,17.48
2023-03-06T20:36:50.939Z,19.88
2023-03-06T20:39:19.281Z,17.05
2023-03-06T20:41:46.809Z,17.77
2023-03-06T20:44:17.187Z,19.20
2023-03-06T20:46:44.475Z,17.02
2023-03-06T20:49:12.718Z,14.50
2023-03-06T20:51:40.426Z,16.73
2023-03-06T20:54:08.647Z,18.40
2023-03-06T20:56:37.081Z,17.05
2023-03-06T20:59:03.658Z,18.70
2023-03-06T21:01:33.666Z,26.48
2023-03-06T21:04:01.520Z,21.83
2023-03-06T21:06:29.182Z,21.05
2023-03-06T21:08:56.786Z,20.98
2023-03-06T21:11:23.577Z,17.65
2023-03-06T21:13:50.190Z,19.35
2023-03-06T21:16:19.155Z,19.42
2023-03-06T21:18:46.071Z,18.50
2023-03-06T21:21:15.222Z,20.85
2023-03-06T21:23:42.522Z,13.40
2023-03-06T21:26:13.188Z,13.23
2023-03-06T21:28:40.045Z,9.13
2023-03-06T21:31:09.203Z,7.60
2023-03-06T21:33:36.459Z,14.13
2023-03-06T21:36:03.631Z,13.55
2023-03-06T21:38:30.432Z,11.77
2023-03-06T21:40:57.008Z,12.35
2023-03-06T21:43:23.574Z,13.82
2023-03-06T21:45:52.725Z,13.07
2023-03-06T21:48:19.358Z,13.23
2023-03-06T21:50:45.927Z,12.98
2023-03-06T21:53:12.508Z,19.67
2023-03-06T21:55:40.796Z,22.63
2023-03-06T21:58:08.617Z,15.90
2023-03-06T22:00:36.487Z,16.55
2023-03-06T22:03:04.732Z,16.27
2023-03-06T22:05:34.189Z,16.30
2023-03-06T22:08:00.888Z,15.55
2023-03-06T22:10:27.480Z,13.48
2023-03-06T22:12:54.027Z,13.00
2023-03-06T22:15:21.899Z,21.60
2023-03-06T22:17:48.680Z,22.58
2023-03-06T22:20:15.497Z,21.25
2023-03-06T22:22:42.344Z,15.25
2023-03-06T22:25:09.287Z,16.73
2023-03-06T22:27:35.844Z,15.63
2023-03-06T22:30:02.534Z,16.33
2023-03-06T22:32:29.122Z,19.27
2023-03-06T22:34:55.715Z,15.18
2023-03-06T22:37:22.279Z,22.40
2023-03-06T22:39:48.837Z,16.75
2023-03-06T22:42:15.422Z,17.05
2023-03-06T22:44:42.003Z,16.63
2023-03-06T22:47:08.504Z,21.05
2023-03-06T22:49:35.015Z,24.65
2023-03-06T22:52:01.555Z,20.75
2023-03-06T22:54:30.204Z,18.70
2023-03-06T22:56:56.723Z,18.05
2023-03-06T22:59:23.245Z,23.73
2023-03-06T23:01:49.780Z,18.48
2023-03-06T23:04:16.438Z,22.63
2023-03-06T23:06:43.511Z,20.15
2023-03-06T23:09:20.575Z,16.38
2023-03-06T23:11:48.191Z,21.83
2023-03-06T23:14:16.597Z,22.77
2023-03-06T23:16:43.865Z,20.95
2023-03-06T23:19:10.429Z,21.13
2023-03-06T23:21:37.066Z,22.00
2023-03-06T23:24:04.409Z,25.88
2023-03-06T23:26:31.962Z,20.75
2023-03-06T23:28:58.558Z,22.20
2023-03-06T23:31:28.862Z,19.77
2023-03-06T23:34:02.530Z,22.40
2023-03-06T23:36:30.306Z,18.73
2023-03-06T23:38:57.616Z,18.85
2023-03-06T23:41:24.589Z,19.48
2023-03-06T23:43:53.487Z,22.95
2023-03-06T23:46:21.312Z,21.10
2023-03-06T23:48:47.890Z,17.70
2023-03-06T23:51:19.828Z,18.23
2023-03-06T23:53:47.597Z,20.83
2023-03-06T23:56:14.677Z,26.80
2023-03-06T23:58:41.313Z,22.85
